createdAt,value
2023-03-19T00:03:58.240Z,7.40
2023-03-19T00:08:59.901Z,7.39
2023-03-19T00:14:01.698Z,7.48
2023-03-19T00:19:03.931Z,7.56
2023-03-19T00:24:05.930Z,7.67
2023-03-19T00:29:08.392Z,7.65
2023-03-19T00:34:10.447Z,7.71
2023-03-19T00:39:12.520Z,7.67
2023-03-19T00:44:14.152Z,7.74
2023-03-19T00:49:15.817Z,7.72
2023-03-19T00:54:17.917Z,7.72
2023-03-19T00:59:20.304Z,7.59
2023-03-19T01:04:24.005Z,7.56
2023-03-19T01:09:27.434Z,7.52
2023-03-19T01:14:29.071Z,7.52
2023-03-19T01:19:30.769Z,7.43
2023-03-19T01:24:32.646Z,7.28
2023-03-19T01:29:35.410Z,7.17
2023-03-19T01:34:46.672Z,7.00
2023-03-19T01:39:51.208Z,6.88
2023-03-19T01:44:53.027Z,6.80
2023-03-19T01:50:04.466Z,6.66
2023-03-19T01:55:07.406Z,6.55
2023-03-19T02:00:24.101Z,6.44
2023-03-19T02:05:29.181Z,6.41
2023-03-19T02:10:37.205Z,6.37
2023-03-19T02:15:39.210Z,6.21
2023-03-19T02:20:47.166Z,6.13
2023-03-19T02:26:10.220Z,6.06
2023-03-19T02:31:13.376Z,5.98
2023-03-19T02:36:18.263Z,5.88
2023-03-19T02:41:19.983Z,5.84
2023-03-19T02:46:21.749Z,5.81
2023-03-19T02:51:23.476Z,5.75
2023-03-19T02:56:26.214Z,5.65
2023-03-19T03:01:28.427Z,5.58
2023-03-19T03:06:30.523Z,5.50
2023-03-19T03:11:32.193Z,5.36
2023-03-19T03:16:33.856Z,5.30
2023-03-19T03:21:35.939Z,5.23
2023-03-19T03:26:39.007Z,5.18
2023-03-19T03:31:40.763Z,5.09
2023-03-19T03:36:42.423Z,5.00
2023-03-19T03:41:44.209Z,4.86
2023-03-19T03:46:46.616Z,4.84
2023-03-19T03:51:48.993Z,4.82
2023-03-19T03:56:51.246Z,4.71
2023-03-19T04:01:53.049Z,4.65
2023-03-19T04:06:55.443Z,4.53
2023-03-19T04:12:06.615Z,4.49
2023-03-19T04:17:08.254Z,4.38
2023-03-19T04:22:10.272Z,4.36
2023-03-19T04:27:12.452Z,4.34
2023-03-19T04:32:15.375Z,4.28
2023-03-19T04:37:17.520Z,4.26
2023-03-19T04:42:23.656Z,4.23
2023-03-19T04:47:32.817Z,4.13
2023-03-19T04:52:37.427Z,4.05
2023-03-19T04:57:39.661Z,4.00
2023-03-19T05:02:43.072Z,3.91
2023-03-19T05:07:45.316Z,3.95
2023-03-19T05:12:47.279Z,3.96
2023-03-19T05:17:50.054Z,3.95
2023-03-19T05:23:01.297Z,4.02
2023-03-19T05:28:12.585Z,4.08
2023-03-19T05:33:14.636Z,4.07
2023-03-19T05:38:19.615Z,4.04
2023-03-19T05:43:29.403Z,4.15
2023-03-19T05:48:33.608Z,4.32
2023-03-19T05:53:37.508Z,4.55
2023-03-19T05:59:01.000Z,4.79
2023-03-19T06:04:11.567Z,5.02
2023-03-19T06:09:13.529Z,5.19
2023-03-19T06:14:18.092Z,5.33
2023-03-19T06:19:34.029Z,5.55
2023-03-19T06:24:36.989Z,5.73
2023-03-19T06:29:39.007Z,5.87
2023-03-19T06:34:56.606Z,6.08
2023-03-19T06:39:58.694Z,6.21
2023-03-19T06:45:00.373Z,6.49
2023-03-19T06:50:22.029Z,6.65
2023-03-19T06:55:23.623Z,6.91
2023-03-19T07:00:25.348Z,7.07
2023-03-19T07:05:27.039Z,7.17
2023-03-19T07:10:29.120Z,7.28
2023-03-19T07:15:30.984Z,7.30
2023-03-19T07:20:33.336Z,7.43
2023-03-19T07:25:35.500Z,7.51
2023-03-19T07:30:38.503Z,7.82
2023-03-19T07:35:40.176Z,8.03
2023-03-19T07:40:51.362Z,8.17
2023-03-19T07:46:01.515Z,8.27
2023-03-19T07:51:06.541Z,8.46
2023-03-19T07:56:08.132Z,8.68
2023-03-19T08:01:10.194Z,8.71
2023-03-19T08:06:11.811Z,8.76
2023-03-19T08:11:14.716Z,8.82
2023-03-19T08:16:16.337Z,9.05
2023-03-19T08:21:18.239Z,9.48
2023-03-19T08:26:19.843Z,9.53
2023-03-19T08:31:21.531Z,9.61
2023-03-19T08:36:23.201Z,9.79
2023-03-19T08:41:25.362Z,9.76
2023-03-19T08:46:27.789Z,9.78
2023-03-19T08:51:31.501Z,9.90
2023-03-19T08:56:33.406Z,10.00
2023-03-19T09:01:35.569Z,10.34
2023-03-19T09:06:37.210Z,10.77
2023-03-19T09:11:39.075Z,10.88
2023-03-19T09:16:41.054Z,10.97
2023-03-19T09:21:43.076Z,11.03
2023-03-19T09:26:46.361Z,11.31
2023-03-19T09:31:48.101Z,11.38
2023-03-19T09:36:49.823Z,11.49
2023-03-19T09:42:08.837Z,11.61
2023-03-19T09:47:31.445Z,12.02
2023-03-19T09:52:49.605Z,12.44
2023-03-19T09:57:56.439Z,12.64
2023-03-19T10:03:16.712Z,12.98
2023-03-19T10:08:36.248Z,13.07
2023-03-19T10:13:49.757Z,13.41
2023-03-19T10:18:54.292Z,13.56
2023-03-19T10:24:02.491Z,14.00
2023-03-19T10:29:19.676Z,14.23
2023-03-19T10:34:31.810Z,14.66
2023-03-19T10:39:36.768Z,14.96
2023-03-19T10:44:50.942Z,14.93
2023-03-19T10:49:53.914Z,15.19
2023-03-19T10:55:02.222Z,15.67
2023-03-19T11:00:07.172Z,15.70
2023-03-19T11:05:15.602Z,15.34
2023-03-19T11:10:19.979Z,15.37
2023-03-19T11:15:43.419Z,15.55
2023-03-19T11:20:54.258Z,15.79
2023-03-19T11:26:01.719Z,15.95
2023-03-19T11:31:19.999Z,15.81
2023-03-19T11:36:29.549Z,16.01
2023-03-19T11:41:43.089Z,16.48
2023-03-19T11:47:03.857Z,16.76
2023-03-19T11:52:34.112Z,16.59
2023-03-19T11:58:06.838Z,16.74
2023-03-19T12:03:30.003Z,16.81
2023-03-19T12:08:51.234Z,16.87
2023-03-19T12:14:32.960Z,16.54
2023-03-19T12:20:03.157Z,16.55
2023-03-19T12:25:16.927Z,16.86
2023-03-19T12:30:26.538Z,16.42
2023-03-19T12:35:35.852Z,16.34
2023-03-19T12:40:52.673Z,16.37
2023-03-19T12:46:14.970Z,16.50
2023-03-19T12:51:22.791Z,16.34
2023-03-19T12:56:43.888Z,16.63
2023-03-19T13:01:51.099Z,16.70
2023-03-19T13:06:59.269Z,16.84
2023-03-19T13:12:10.707Z,16.42
2023-03-19T13:17:24.240Z,16.63
2023-03-19T13:22:37.418Z,16.52
2023-03-19T13:27:39.148Z,16.73
2023-03-19T13:32:48.041Z,16.75
2023-03-19T13:37:54.710Z,16.87
2023-03-19T13:42:57.289Z,16.84
2023-03-19T13:48:28.650Z,16.72
2023-03-19T13:53:35.255Z,16.77
2023-03-19T13:59:16.998Z,16.88
2023-03-19T14:04:26.149Z,16.88
2023-03-19T14:09:33.648Z,16.86
2023-03-19T14:14:44.450Z,16.90
2023-03-19T14:19:46.333Z,16.96
2023-03-19T14:25:15.150Z,16.82
2023-03-19T14:30:52.513Z,16.77
2023-03-19T14:35:54.312Z,16.85
2023-03-19T14:40:56.254Z,16.69
2023-03-19T14:46:00.941Z,16.94
2023-03-19T14:51:31.994Z,17.30
2023-03-19T14:56:35.848Z,17.56
2023-03-19T15:01:41.550Z,17.57
2023-03-19T15:06:51.789Z,17.52
2023-03-19T15:12:21.295Z,17.41
2023-03-19T15:17:29.801Z,17.31
2023-03-19T15:22:36.935Z,17.24
2023-03-19T15:27:41.182Z,16.89
2023-03-19T15:32:54.423Z,16.81
2023-03-19T15:38:09.728Z,16.33
2023-03-19T15:43:13.070Z,16.58
2023-03-19T15:48:25.569Z,16.69
2023-03-19T15:53:32.339Z,16.58
2023-03-19T15:58:48.565Z,16.56
2023-03-19T16:04:00.061Z,16.52
2023-03-19T16:09:23.890Z,16.37
2023-03-19T16:14:25.772Z,16.27
2023-03-19T16:19:40.093Z,16.16
2023-03-19T16:25:09.040Z,15.98
2023-03-19T16:30:27.672Z,15.86
2023-03-19T16:35:31.724Z,15.71
2023-03-19T16:40:42.830Z,15.54
2023-03-19T16:45:49.328Z,15.39
2023-03-19T16:50:51.642Z,15.20
2023-03-19T16:55:55.273Z,15.08
2023-03-19T17:00:59.365Z,14.90
2023-03-19T17:06:02.706Z,14.71
2023-03-19T17:11:09.371Z,14.53
2023-03-19T17:16:11.894Z,14.36
2023-03-19T17:21:32.569Z,14.13
2023-03-19T17:26:46.142Z,13.91
2023-03-19T17:31:54.290Z,13.72
2023-03-19T17:37:01.751Z,13.53
2023-03-19T17:42:16.528Z,13.36
2023-03-19T17:47:18.967Z,13.21
2023-03-19T17:52:21.302Z,13.07
2023-03-19T17:57:22.952Z,12.93
2023-03-19T18:02:32.027Z,12.79
2023-03-19T18:07:42.839Z,12.54
2023-03-19T18:12:44.612Z,12.33
2023-03-19T18:17:53.000Z,12.16
2023-03-19T18:22:54.726Z,12.06
2023-03-19T18:27:57.100Z,11.95
2023-03-19T18:33:02.901Z,11.84
2023-03-19T18:38:16.151Z,11.71
2023-03-19T18:43:17.931Z,11.64
2023-03-19T18:48:24.610Z,11.52
2023-03-19T18:53:26.602Z,11.43
2023-03-19T18:58:29.174Z,11.32
2023-03-19T19:03:33.489Z,11.19
2023-03-19T19:08:35.440Z,11.06
2023-03-19T19:13:53.322Z,10.98
2023-03-19T19:18:57.674Z,10.88
2023-03-19T19:23:59.361Z,10.77
2023-03-19T19:29:01.473Z,10.71
2023-03-19T19:34:03.169Z,10.65
2023-03-19T19:39:04.925Z,10.57
2023-03-19T19:44:07.060Z,10.52
2023-03-19T19:49:13.435Z,10.48
2023-03-19T19:54:15.689Z,10.40
2023-03-19T19:59:25.586Z,10.30
2023-03-19T20:04:29.973Z,10.22
2023-03-19T20:09:32.342Z,10.17
2023-03-19T20:14:34.137Z,10.10
2023-03-19T20:19:35.910Z,10.01
2023-03-19T20:24:39.641Z,9.92
2023-03-19T20:29:41.512Z,9.81
2023-03-19T20:34:43.485Z,9.74
2023-03-19T20:39:45.374Z,9.64
2023-03-19T20:44:47.688Z,9.53
2023-03-19T20:49:49.539Z,9.40
2023-03-19T20:54:51.441Z,9.34
2023-03-19T20:59:53.200Z,9.23
2023-03-19T21:04:54.899Z,9.12
2023-03-19T21:09:58.083Z,8.99
2023-03-19T21:15:01.242Z,8.92
2023-03-19T21:20:03.224Z,8.86
2023-03-19T21:25:08.111Z,8.76
2023-03-19T21:30:14.736Z,8.66
2023-03-19T21:35:26.467Z,8.56
2023-03-19T21:40:30.794Z,8.49
2023-03-19T21:45:36.515Z,8.40
2023-03-19T21:50:40.103Z,8.30
2023-03-19T21:55:42.347Z,8.22
2023-03-19T22:00:44.990Z,8.16
2023-03-19T22:05:51.258Z,8.08
2023-03-19T22:10:57.131Z,8.00
2023-03-19T22:16:00.412Z,7.91
2023-03-19T22:21:02.396Z,7.82
2023-03-19T22:26:04.121Z,7.73
2023-03-19T22:31:06.323Z,7.66
2023-03-19T22:36:12.684Z,7.59
2023-03-19T22:41:28.779Z,7.53
2023-03-19T22:46:31.208Z,7.45
2023-03-19T22:51:33.163Z,7.36
2023-03-19T22:56:34.841Z,7.23
2023-03-19T23:01:47.213Z,7.04
2023-03-19T23:06:50.108Z,6.96
2023-03-19T23:11:53.616Z,6.94
2023-03-19T23:22:00.129Z,6.80
2023-03-19T23:27:02.978Z,6.76
2023-03-19T23:32:05.006Z,6.67
2023-03-19T23:37:06.976Z,6.62
2023-03-19T23:42:22.393Z,6.56
2023-03-19T23:47:24.249Z,6.55
2023-03-19T23:52:26.223Z,6.52
2023-03-19T23:57:27.908Z,6.47
